sensor_id;sensor_type;location;lat;lon;timestamp;P1;durP1;ratioP1;P2;durP2;ratioP2
13406;SDS011;6774;48.208;10.766;2024-01-16T00:02:18;1.07;;;0.73;;
13406;SDS011;6774;48.208;10.766;2024-01-16T00:04:46;1.33;;;1.03;;
13406;SDS011;6774;48.208;10.766;2024-01-16T00:07:14;1.33;;;0.80;;
13406;SDS011;6774;48.208;10.766;2024-01-16T00:09:42;1.43;;;0.83;;
13406;SDS011;6774;48.208;10.766;2024-01-16T00:12:09;1.43;;;1.30;;
13406;SDS011;6774;48.208;10.766;2024-01-16T00:14:38;0.80;;;0.80;;
13406;SDS011;6774;48.208;10.766;2024-01-16T00:17:07;2.67;;;1.53;;
13406;SDS011;6774;48.208;10.766;2024-01-16T00:19:35;2.27;;;1.20;;
13406;SDS011;6774;48.208;10.766;2024-01-16T00:22:03;2.53;;;1.97;;
13406;SDS011;6774;48.208;10.766;2024-01-16T00:24:31;1.97;;;1.53;;
13406;SDS011;6774;48.208;10.766;2024-01-16T00:26:59;0.90;;;0.87;;
13406;SDS011;6774;48.208;10.766;2024-01-16T00:29:27;2.27;;;2.00;;
13406;SDS011;6774;48.208;10.766;2024-01-16T00:31:57;7.57;;;2.07;;
13406;SDS011;6774;48.208;10.766;2024-01-16T00:34:26;3.13;;;1.43;;
13406;SDS011;6774;48.208;10.766;2024-01-16T00:36:54;2.57;;;1.47;;
13406;SDS011;6774;48.208;10.766;2024-01-16T00:39:21;2.07;;;1.97;;
13406;SDS011;6774;48.208;10.766;2024-01-16T00:41:49;0.87;;;0.87;;
13406;SDS011;6774;48.208;10.766;2024-01-16T00:44:17;0.80;;;0.80;;
13406;SDS011;6774;48.208;10.766;2024-01-16T00:46:45;1.93;;;1.13;;
13406;SDS011;6774;48.208;10.766;2024-01-16T00:49:13;1.07;;;1.03;;
13406;SDS011;6774;48.208;10.766;2024-01-16T00:51:47;2.40;;;1.27;;
13406;SDS011;6774;48.208;10.766;2024-01-16T00:54:14;5.60;;;1.83;;
13406;SDS011;6774;48.208;10.766;2024-01-16T00:56:42;1.87;;;1.77;;
13406;SDS011;6774;48.208;10.766;2024-01-16T00:59:10;2.03;;;1.40;;
13406;SDS011;6774;48.208;10.766;2024-01-16T01:01:38;2.17;;;1.60;;
13406;SDS011;6774;48.208;10.766;2024-01-16T01:04:06;2.10;;;1.50;;
13406;SDS011;6774;48.208;10.766;2024-01-16T01:06:35;2.20;;;1.50;;
13406;SDS011;6774;48.208;10.766;2024-01-16T01:09:04;2.07;;;1.97;;
13406;SDS011;6774;48.208;10.766;2024-01-16T01:11:32;1.90;;;1.73;;
13406;SDS011;6774;48.208;10.766;2024-01-16T01:13:59;1.93;;;1.17;;
13406;SDS011;6774;48.208;10.766;2024-01-16T01:16:27;8.07;;;1.77;;
13406;SDS011;6774;48.208;10.766;2024-01-16T01:18:55;2.50;;;1.30;;
13406;SDS011;6774;48.208;10.766;2024-01-16T01:21:23;2.70;;;1.87;;
13406;SDS011;6774;48.208;10.766;2024-01-16T01:23:51;2.73;;;1.57;;
13406;SDS011;6774;48.208;10.766;2024-01-16T01:26:20;1.90;;;1.67;;
13406;SDS011;6774;48.208;10.766;2024-01-16T01:28:48;1.53;;;1.17;;
13406;SDS011;6774;48.208;10.766;2024-01-16T01:31:16;2.83;;;1.63;;
13406;SDS011;6774;48.208;10.766;2024-01-16T01:33:44;1.40;;;1.27;;
13406;SDS011;6774;48.208;10.766;2024-01-16T01:36:12;2.63;;;2.43;;
13406;SDS011;6774;48.208;10.766;2024-01-16T01:38:39;1.90;;;1.80;;
13406;SDS011;6774;48.208;10.766;2024-01-16T01:41:07;2.70;;;1.30;;
13406;SDS011;6774;48.208;10.766;2024-01-16T01:43:39;3.07;;;2.33;;
13406;SDS011;6774;48.208;10.766;2024-01-16T01:46:09;1.30;;;1.20;;
13406;SDS011;6774;48.208;10.766;2024-01-16T01:48:38;2.97;;;2.63;;
13406;SDS011;6774;48.208;10.766;2024-01-16T01:51:08;1.43;;;1.30;;
13406;SDS011;6774;48.208;10.766;2024-01-16T01:53:36;1.33;;;1.20;;
13406;SDS011;6774;48.208;10.766;2024-01-16T01:56:07;1.53;;;1.43;;
13406;SDS011;6774;48.208;10.766;2024-01-16T01:58:37;1.87;;;1.77;;
13406;SDS011;6774;48.208;10.766;2024-01-16T02:01:08;2.43;;;2.07;;
13406;SDS011;6774;48.208;10.766;2024-01-16T02:03:39;1.93;;;1.57;;
13406;SDS011;6774;48.208;10.766;2024-01-16T02:06:10;2.10;;;1.73;;
13406;SDS011;6774;48.208;10.766;2024-01-16T02:08:39;1.33;;;1.23;;
13406;SDS011;6774;48.208;10.766;2024-01-16T02:11:07;2.00;;;1.70;;
13406;SDS011;6774;48.208;10.766;2024-01-16T02:13:36;3.93;;;1.70;;
13406;SDS011;6774;48.208;10.766;2024-01-16T02:16:05;2.97;;;2.70;;
13406;SDS011;6774;48.208;10.766;2024-01-16T02:18:44;1.50;;;1.40;;
13406;SDS011;6774;48.208;10.766;2024-01-16T02:21:12;2.23;;;1.40;;
13406;SDS011;6774;48.208;10.766;2024-01-16T02:23:44;2.27;;;1.47;;
13406;SDS011;6774;48.208;10.766;2024-01-16T02:26:12;3.83;;;2.33;;
13406;SDS011;6774;48.208;10.766;2024-01-16T02:28:42;2.33;;;2.23;;
13406;SDS011;6774;48.208;10.766;2024-01-16T02:31:10;2.17;;;1.60;;
13406;SDS011;6774;48.208;10.766;2024-01-16T02:33:37;3.17;;;2.93;;
13406;SDS011;6774;48.208;10.766;2024-01-16T02:36:05;1.60;;;1.40;;
13406;SDS011;6774;48.208;10.766;2024-01-16T02:38:33;1.97;;;1.40;;
13406;SDS011;6774;48.208;10.766;2024-01-16T02:41:03;1.30;;;1.20;;
13406;SDS011;6774;48.208;10.766;2024-01-16T02:43:31;2.37;;;1.80;;
13406;SDS011;6774;48.208;10.766;2024-01-16T02:45:59;3.53;;;2.03;;
13406;SDS011;6774;48.208;10.766;2024-01-16T02:48:26;2.70;;;1.80;;
13406;SDS011;6774;48.208;10.766;2024-01-16T02:50:54;2.37;;;2.17;;
13406;SDS011;6774;48.208;10.766;2024-01-16T02:53:22;1.80;;;1.23;;
13406;SDS011;6774;48.208;10.766;2024-01-16T02:55:52;2.20;;;2.00;;
13406;SDS011;6774;48.208;10.766;2024-01-16T02:58:21;1.30;;;1.20;;
13406;SDS011;6774;48.208;10.766;2024-01-16T03:00:49;1.97;;;1.80;;
13406;SDS011;6774;48.208;10.766;2024-01-16T03:03:17;1.73;;;1.63;;
13406;SDS011;6774;48.208;10.766;2024-01-16T03:05:45;2.23;;;2.10;;
13406;SDS011;6774;48.208;10.766;2024-01-16T03:08:13;1.00;;;1.00;;
13406;SDS011;6774;48.208;10.766;2024-01-16T03:10:41;2.20;;;1.73;;
13406;SDS011;6774;48.208;10.766;2024-01-16T03:13:09;3.03;;;2.00;;
13406;SDS011;6774;48.208;10.766;2024-01-16T03:15:38;1.83;;;1.20;;
13406;SDS011;6774;48.208;10.766;2024-01-16T03:18:07;2.60;;;2.40;;
13406;SDS011;6774;48.208;10.766;2024-01-16T03:20:35;4.37;;;2.30;;
13406;SDS011;6774;48.208;10.766;2024-01-16T03:23:03;2.57;;;2.37;;
13406;SDS011;6774;48.208;10.766;2024-01-16T03:25:31;2.07;;;1.50;;
13406;SDS011;6774;48.208;10.766;2024-01-16T03:28:04;1.87;;;1.67;;
13406;SDS011;6774;48.208;10.766;2024-01-16T03:30:34;2.23;;;1.13;;
13406;SDS011;6774;48.208;10.766;2024-01-16T03:33:04;2.37;;;1.63;;
13406;SDS011;6774;48.208;10.766;2024-01-16T03:35:32;1.67;;;1.53;;
13406;SDS011;6774;48.208;10.766;2024-01-16T03:38:00;2.10;;;1.53;;
13406;SDS011;6774;48.208;10.766;2024-01-16T03:40:28;5.60;;;2.30;;
13406;SDS011;6774;48.208;10.766;2024-01-16T03:43:00;2.10;;;1.70;;
13406;SDS011;6774;48.208;10.766;2024-01-16T03:45:28;3.20;;;2.47;;
13406;SDS011;6774;48.208;10.766;2024-01-16T03:47:56;1.87;;;1.63;;
13406;SDS011;6774;48.208;10.766;2024-01-16T03:50:25;1.77;;;1.27;;
13406;SDS011;6774;48.208;10.766;2024-01-16T03:52:53;2.47;;;2.00;;
13406;SDS011;6774;48.208;10.766;2024-01-16T03:55:21;4.20;;;1.80;;
13406;SDS011;6774;48.208;10.766;2024-01-16T03:57:48;1.67;;;1.53;;
13406;SDS011;6774;48.208;10.766;2024-01-16T04:00:17;5.27;;;2.20;;
13406;SDS011;6774;48.208;10.766;2024-01-16T04:02:45;3.57;;;2.20;;
13406;SDS011;6774;48.208;10.766;2024-01-16T04:05:13;1.80;;;1.20;;
13406;SDS011;6774;48.208;10.766;2024-01-16T04:07:42;2.27;;;1.60;;
13406;SDS011;6774;48.208;10.766;2024-01-16T04:10:10;1.60;;;1.47;;
13406;SDS011;6774;48.208;10.766;2024-01-16T04:12:38;2.30;;;2.00;;
13406;SDS011;6774;48.208;10.766;2024-01-16T04:15:06;3.37;;;2.30;;
13406;SDS011;6774;48.208;10.766;2024-01-16T04:17:34;1.87;;;1.77;;
13406;SDS011;6774;48.208;10.766;2024-01-16T04:20:02;2.63;;;1.43;;
13406;SDS011;6774;48.208;10.766;2024-01-16T04:22:33;1.67;;;1.57;;
13406;SDS011;6774;48.208;10.766;2024-01-16T04:25:02;1.50;;;1.40;;
13406;SDS011;6774;48.208;10.766;2024-01-16T04:27:31;1.90;;;1.50;;
13406;SDS011;6774;48.208;10.766;2024-01-16T04:29:59;1.63;;;1.33;;
13406;SDS011;6774;48.208;10.766;2024-01-16T04:32:27;2.23;;;2.13;;
13406;SDS011;6774;48.208;10.766;2024-01-16T04:34:55;4.03;;;1.33;;
13406;SDS011;6774;48.208;10.766;2024-01-16T04:37:22;1.40;;;1.30;;
13406;SDS011;6774;48.208;10.766;2024-01-16T04:39:50;0.87;;;0.80;;
13406;SDS011;6774;48.208;10.766;2024-01-16T04:42:21;1.17;;;1.07;;
13406;SDS011;6774;48.208;10.766;2024-01-16T04:44:49;7.53;;;1.47;;
13406;SDS011;6774;48.208;10.766;2024-01-16T04:47:17;1.27;;;1.10;;
13406;SDS011;6774;48.208;10.766;2024-01-16T04:49:44;1.93;;;1.83;;
13406;SDS011;6774;48.208;10.766;2024-01-16T04:52:12;1.03;;;0.93;;
13406;SDS011;6774;48.208;10.766;2024-01-16T04:54:40;1.60;;;1.50;;
13406;SDS011;6774;48.208;10.766;2024-01-16T04:57:07;4.37;;;1.53;;
13406;SDS011;6774;48.208;10.766;2024-01-16T04:59:37;1.57;;;1.47;;
13406;SDS011;6774;48.208;10.766;2024-01-16T05:02:04;3.03;;;2.83;;
13406;SDS011;6774;48.208;10.766;2024-01-16T05:04:32;1.30;;;1.20;;
13406;SDS011;6774;48.208;10.766;2024-01-16T05:07:00;2.93;;;1.07;;
13406;SDS011;6774;48.208;10.766;2024-01-16T05:09:28;2.27;;;2.07;;
13406;SDS011;6774;48.208;10.766;2024-01-16T05:11:56;2.10;;;1.43;;
13406;SDS011;6774;48.208;10.766;2024-01-16T05:14:24;3.60;;;0.90;;
13406;SDS011;6774;48.208;10.766;2024-01-16T05:16:53;2.87;;;1.17;;
13406;SDS011;6774;48.208;10.766;2024-01-16T05:19:21;2.40;;;1.97;;
13406;SDS011;6774;48.208;10.766;2024-01-16T05:21:49;1.63;;;1.50;;
13406;SDS011;6774;48.208;10.766;2024-01-16T05:24:17;2.07;;;1.57;;
13406;SDS011;6774;48.208;10.766;2024-01-16T05:26:44;1.63;;;1.30;;
13406;SDS011;6774;48.208;10.766;2024-01-16T05:29:12;2.17;;;1.97;;
13406;SDS011;6774;48.208;10.766;2024-01-16T05:31:40;2.70;;;1.17;;
13406;SDS011;6774;48.208;10.766;2024-01-16T05:34:10;1.93;;;1.03;;
13406;SDS011;6774;48.208;10.766;2024-01-16T05:36:38;2.13;;;0.87;;
13406;SDS011;6774;48.208;10.766;2024-01-16T05:39:06;1.77;;;1.67;;
13406;SDS011;6774;48.208;10.766;2024-01-16T05:41:35;3.07;;;1.10;;
13406;SDS011;6774;48.208;10.766;2024-01-16T05:44:03;1.67;;;1.47;;
13406;SDS011;6774;48.208;10.766;2024-01-16T05:46:31;1.60;;;1.07;;
13406;SDS011;6774;48.208;10.766;2024-01-16T05:49:00;2.60;;;1.40;;
13406;SDS011;6774;48.208;10.766;2024-01-16T05:51:29;2.60;;;1.70;;
13406;SDS011;6774;48.208;10.766;2024-01-16T05:53:57;2.07;;;1.50;;
13406;SDS011;6774;48.208;10.766;2024-01-16T05:56:25;2.27;;;2.07;;
13406;SDS011;6774;48.208;10.766;2024-01-16T05:58:53;2.77;;;2.53;;
13406;SDS011;6774;48.208;10.766;2024-01-16T06:01:21;5.07;;;4.73;;
13406;SDS011;6774;48.208;10.766;2024-01-16T06:03:49;1.97;;;1.67;;
13406;SDS011;6774;48.208;10.766;2024-01-16T06:06:17;2.80;;;1.80;;
13406;SDS011;6774;48.208;10.766;2024-01-16T06:08:47;1.57;;;1.20;;
13406;SDS011;6774;48.208;10.766;2024-01-16T06:11:14;1.47;;;1.37;;
13406;SDS011;6774;48.208;10.766;2024-01-16T06:13:42;2.03;;;1.93;;
13406;SDS011;6774;48.208;10.766;2024-01-16T06:16:10;5.70;;;2.20;;
13406;SDS011;6774;48.208;10.766;2024-01-16T06:18:38;3.13;;;2.20;;
13406;SDS011;6774;48.208;10.766;2024-01-16T06:21:06;1.67;;;1.37;;
13406;SDS011;6774;48.208;10.766;2024-01-16T06:23:33;2.23;;;2.03;;
13406;SDS011;6774;48.208;10.766;2024-01-16T06:26:03;3.37;;;2.17;;
13406;SDS011;6774;48.208;10.766;2024-01-16T06:28:31;1.77;;;1.67;;
13406;SDS011;6774;48.208;10.766;2024-01-16T06:30:58;4.90;;;3.00;;
13406;SDS011;6774;48.208;10.766;2024-01-16T06:33:27;2.27;;;1.40;;
13406;SDS011;6774;48.208;10.766;2024-01-16T06:35:55;7.20;;;2.27;;
13406;SDS011;6774;48.208;10.766;2024-01-16T06:38:23;3.60;;;2.23;;
13406;SDS011;6774;48.208;10.766;2024-01-16T06:40:51;1.97;;;1.73;;
13406;SDS011;6774;48.208;10.766;2024-01-16T06:43:21;1.57;;;1.47;;
13406;SDS011;6774;48.208;10.766;2024-01-16T06:45:48;2.50;;;2.30;;
13406;SDS011;6774;48.208;10.766;2024-01-16T06:48:16;5.33;;;4.87;;
13406;SDS011;6774;48.208;10.766;2024-01-16T06:50:44;2.07;;;1.70;;
13406;SDS011;6774;48.208;10.766;2024-01-16T06:53:12;2.10;;;1.97;;
13406;SDS011;6774;48.208;10.766;2024-01-16T06:55:42;3.83;;;3.50;;
13406;SDS011;6774;48.208;10.766;2024-01-16T06:58:10;4.40;;;3.23;;
13406;SDS011;6774;48.208;10.766;2024-01-16T07:00:40;4.70;;;4.37;;
13406;SDS011;6774;48.208;10.766;2024-01-16T07:03:09;3.13;;;2.40;;
13406;SDS011;6774;48.208;10.766;2024-01-16T07:05:37;4.43;;;3.03;;
13406;SDS011;6774;48.208;10.766;2024-01-16T07:08:07;4.60;;;2.87;;
13406;SDS011;6774;48.208;10.766;2024-01-16T07:10:34;4.00;;;1.70;;
13406;SDS011;6774;48.208;10.766;2024-01-16T07:13:03;3.87;;;2.60;;
13406;SDS011;6774;48.208;10.766;2024-01-16T07:15:30;2.17;;;1.97;;
13406;SDS011;6774;48.208;10.766;2024-01-16T07:17:59;2.63;;;2.47;;
13406;SDS011;6774;48.208;10.766;2024-01-16T07:20:27;2.50;;;2.30;;
13406;SDS011;6774;48.208;10.766;2024-01-16T07:22:55;2.67;;;2.47;;
13406;SDS011;6774;48.208;10.766;2024-01-16T07:25:23;3.37;;;3.07;;
13406;SDS011;6774;48.208;10.766;2024-01-16T07:27:51;2.90;;;2.70;;
13406;SDS011;6774;48.208;10.766;2024-01-16T07:30:19;3.27;;;3.00;;
13406;SDS011;6774;48.208;10.766;2024-01-16T07:32:47;3.27;;;2.97;;
13406;SDS011;6774;48.208;10.766;2024-01-16T07:35:16;4.97;;;3.90;;
13406;SDS011;6774;48.208;10.766;2024-01-16T07:37:44;4.03;;;3.73;;
13406;SDS011;6774;48.208;10.766;2024-01-16T07:40:12;4.97;;;3.53;;
13406;SDS011;6774;48.208;10.766;2024-01-16T07:42:40;3.57;;;3.27;;
13406;SDS011;6774;48.208;10.766;2024-01-16T07:45:08;3.40;;;3.10;;
13406;SDS011;6774;48.208;10.766;2024-01-16T07:47:35;4.40;;;3.70;;
13406;SDS011;6774;48.208;10.766;2024-01-16T07:50:04;2.90;;;2.70;;
13406;SDS011;6774;48.208;10.766;2024-01-16T07:52:35;3.00;;;2.57;;
13406;SDS011;6774;48.208;10.766;2024-01-16T07:55:04;2.03;;;1.87;;
13406;SDS011;6774;48.208;10.766;2024-01-16T07:57:32;4.97;;;3.10;;
13406;SDS011;6774;48.208;10.766;2024-01-16T07:59:59;3.17;;;1.90;;
13406;SDS011;6774;48.208;10.766;2024-01-16T08:02:31;3.03;;;2.70;;
13406;SDS011;6774;48.208;10.766;2024-01-16T08:05:00;2.63;;;2.40;;
13406;SDS011;6774;48.208;10.766;2024-01-16T08:07:28;5.43;;;4.17;;
13406;SDS011;6774;48.208;10.766;2024-01-16T08:09:57;9.03;;;5.67;;
13406;SDS011;6774;48.208;10.766;2024-01-16T08:12:25;6.57;;;4.90;;
13406;SDS011;6774;48.208;10.766;2024-01-16T08:14:53;5.97;;;3.57;;
13406;SDS011;6774;48.208;10.766;2024-01-16T08:17:21;7.03;;;3.87;;
13406;SDS011;6774;48.208;10.766;2024-01-16T08:19:48;4.20;;;3.80;;
13406;SDS011;6774;48.208;10.766;2024-01-16T08:22:16;4.87;;;3.70;;
13406;SDS011;6774;48.208;10.766;2024-01-16T08:24:44;3.60;;;2.80;;
13406;SDS011;6774;48.208;10.766;2024-01-16T08:27:13;7.40;;;4.87;;
13406;SDS011;6774;48.208;10.766;2024-01-16T08:29:42;4.57;;;4.17;;
13406;SDS011;6774;48.208;10.766;2024-01-16T08:32:10;8.40;;;7.33;;
13406;SDS011;6774;48.208;10.766;2024-01-16T08:34:38;19.17;;;8.20;;
13406;SDS011;6774;48.208;10.766;2024-01-16T08:37:06;5.07;;;4.63;;
13406;SDS011;6774;48.208;10.766;2024-01-16T08:39:34;3.67;;;3.37;;
13406;SDS011;6774;48.208;10.766;2024-01-16T08:42:02;4.47;;;4.07;;
13406;SDS011;6774;48.208;10.766;2024-01-16T08:44:31;3.90;;;3.60;;
13406;SDS011;6774;48.208;10.766;2024-01-16T08:46:59;5.00;;;4.70;;
13406;SDS011;6774;48.208;10.766;2024-01-16T08:49:28;5.27;;;3.73;;
13406;SDS011;6774;48.208;10.766;2024-01-16T08:51:56;4.37;;;4.07;;
13406;SDS011;6774;48.208;10.766;2024-01-16T08:54:24;3.53;;;3.23;;
13406;SDS011;6774;48.208;10.766;2024-01-16T08:56:53;3.90;;;3.37;;
13406;SDS011;6774;48.208;10.766;2024-01-16T08:59:22;5.73;;;3.70;;
13406;SDS011;6774;48.208;10.766;2024-01-16T09:01:52;5.67;;;3.97;;
13406;SDS011;6774;48.208;10.766;2024-01-16T09:04:20;5.50;;;3.40;;
13406;SDS011;6774;48.208;10.766;2024-01-16T09:06:48;6.67;;;3.37;;
13406;SDS011;6774;48.208;10.766;2024-01-16T09:09:16;7.47;;;4.57;;
13406;SDS011;6774;48.208;10.766;2024-01-16T09:11:44;5.03;;;4.10;;
13406;SDS011;6774;48.208;10.766;2024-01-16T09:14:12;7.33;;;4.47;;
13406;SDS011;6774;48.208;10.766;2024-01-16T09:16:40;5.33;;;3.60;;
13406;SDS011;6774;48.208;10.766;2024-01-16T09:19:10;4.63;;;3.07;;
13406;SDS011;6774;48.208;10.766;2024-01-16T09:21:38;3.53;;;3.23;;
13406;SDS011;6774;48.208;10.766;2024-01-16T09:24:05;2.60;;;2.40;;
13406;SDS011;6774;48.208;10.766;2024-01-16T09:26:33;3.90;;;3.17;;
13406;SDS011;6774;48.208;10.766;2024-01-16T09:29:01;3.30;;;2.93;;
13406;SDS011;6774;48.208;10.766;2024-01-16T09:31:29;3.13;;;2.60;;
13406;SDS011;6774;48.208;10.766;2024-01-16T09:33:56;5.03;;;3.20;;
13406;SDS011;6774;48.208;10.766;2024-01-16T09:36:26;5.93;;;4.03;;
13406;SDS011;6774;48.208;10.766;2024-01-16T09:38:54;5.73;;;3.30;;
13406;SDS011;6774;48.208;10.766;2024-01-16T09:41:22;5.50;;;3.20;;
13406;SDS011;6774;48.208;10.766;2024-01-16T09:43:50;3.63;;;3.33;;
13406;SDS011;6774;48.208;10.766;2024-01-16T09:46:19;3.00;;;2.80;;
13406;SDS011;6774;48.208;10.766;2024-01-16T09:48:50;2.93;;;2.03;;
13406;SDS011;6774;48.208;10.766;2024-01-16T09:51:22;3.37;;;3.00;;
13406;SDS011;6774;48.208;10.766;2024-01-16T09:53:52;4.23;;;2.00;;
13406;SDS011;6774;48.208;10.766;2024-01-16T09:56:21;3.80;;;3.50;;
13406;SDS011;6774;48.208;10.766;2024-01-16T09:58:53;2.77;;;2.27;;
13406;SDS011;6774;48.208;10.766;2024-01-16T10:01:25;3.43;;;2.70;;
13406;SDS011;6774;48.208;10.766;2024-01-16T10:03:54;3.93;;;2.77;;
13406;SDS011;6774;48.208;10.766;2024-01-16T10:06:22;2.80;;;2.50;;
13406;SDS011;6774;48.208;10.766;2024-01-16T10:08:52;3.03;;;2.80;;
13406;SDS011;6774;48.208;10.766;2024-01-16T10:11:20;5.50;;;4.20;;
13406;SDS011;6774;48.208;10.766;2024-01-16T10:13:48;2.60;;;2.07;;
13406;SDS011;6774;48.208;10.766;2024-01-16T10:16:16;3.97;;;3.53;;
13406;SDS011;6774;48.208;10.766;2024-01-16T10:18:44;4.40;;;3.07;;
13406;SDS011;6774;48.208;10.766;2024-01-16T10:21:19;4.10;;;3.47;;
13406;SDS011;6774;48.208;10.766;2024-01-16T10:23:48;3.70;;;3.13;;
13406;SDS011;6774;48.208;10.766;2024-01-16T10:26:18;3.10;;;2.90;;
13406;SDS011;6774;48.208;10.766;2024-01-16T10:28:48;4.40;;;3.47;;
13406;SDS011;6774;48.208;10.766;2024-01-16T10:31:16;5.57;;;3.77;;
13406;SDS011;6774;48.208;10.766;2024-01-16T10:33:44;3.87;;;3.57;;
13406;SDS011;6774;48.208;10.766;2024-01-16T10:36:12;3.43;;;3.13;;
13406;SDS011;6774;48.208;10.766;2024-01-16T10:38:43;3.90;;;2.90;;
13406;SDS011;6774;48.208;10.766;2024-01-16T10:41:12;6.83;;;3.07;;
13406;SDS011;6774;48.208;10.766;2024-01-16T10:43:42;3.67;;;3.00;;
13406;SDS011;6774;48.208;10.766;2024-01-16T10:46:12;4.40;;;3.67;;
13406;SDS011;6774;48.208;10.766;2024-01-16T10:48:41;6.00;;;3.83;;
13406;SDS011;6774;48.208;10.766;2024-01-16T10:51:10;3.27;;;2.97;;
13406;SDS011;6774;48.208;10.766;2024-01-16T10:53:41;3.47;;;3.17;;
13406;SDS011;6774;48.208;10.766;2024-01-16T10:56:11;3.80;;;3.00;;
13406;SDS011;6774;48.208;10.766;2024-01-16T10:58:40;4.70;;;2.70;;
13406;SDS011;6774;48.208;10.766;2024-01-16T11:01:12;3.53;;;3.30;;
13406;SDS011;6774;48.208;10.766;2024-01-16T11:03:44;5.27;;;3.67;;
13406;SDS011;6774;48.208;10.766;2024-01-16T11:06:15;3.60;;;3.40;;
13406;SDS011;6774;48.208;10.766;2024-01-16T11:08:45;3.10;;;2.80;;
13406;SDS011;6774;48.208;10.766;2024-01-16T11:11:14;4.63;;;4.00;;
13406;SDS011;6774;48.208;10.766;2024-01-16T11:13:42;4.57;;;4.17;;
13406;SDS011;6774;48.208;10.766;2024-01-16T11:16:12;3.33;;;2.90;;
13406;SDS011;6774;48.208;10.766;2024-01-16T11:18:40;4.47;;;3.53;;
13406;SDS011;6774;48.208;10.766;2024-01-16T11:21:08;4.27;;;3.97;;
13406;SDS011;6774;48.208;10.766;2024-01-16T11:23:43;4.70;;;4.00;;
13406;SDS011;6774;48.208;10.766;2024-01-16T11:26:25;5.00;;;4.13;;
13406;SDS011;6774;48.208;10.766;2024-01-16T11:28:55;4.40;;;4.07;;
13406;SDS011;6774;48.208;10.766;2024-01-16T11:31:30;3.87;;;3.57;;
13406;SDS011;6774;48.208;10.766;2024-01-16T11:34:00;3.73;;;3.53;;
13406;SDS011;6774;48.208;10.766;2024-01-16T11:36:47;4.27;;;3.87;;
13406;SDS011;6774;48.208;10.766;2024-01-16T11:39:19;2.73;;;2.40;;
13406;SDS011;6774;48.208;10.766;2024-01-16T11:41:48;3.60;;;3.40;;
13406;SDS011;6774;48.208;10.766;2024-01-16T11:44:41;4.40;;;3.57;;
13406;SDS011;6774;48.208;10.766;2024-01-16T11:47:16;4.03;;;3.73;;
13406;SDS011;6774;48.208;10.766;2024-01-16T11:49:44;4.13;;;3.37;;
13406;SDS011;6774;48.208;10.766;2024-01-16T11:52:13;4.17;;;3.23;;
13406;SDS011;6774;48.208;10.766;2024-01-16T11:54:41;3.77;;;3.10;;
13406;SDS011;6774;48.208;10.766;2024-01-16T12:00:18;2.93;;;2.70;;
13406;SDS011;6774;48.208;10.766;2024-01-16T12:02:52;4.17;;;3.87;;
13406;SDS011;6774;48.208;10.766;2024-01-16T12:05:21;4.97;;;4.27;;
13406;SDS011;6774;48.208;10.766;2024-01-16T12:07:50;5.77;;;5.03;;
13406;SDS011;6774;48.208;10.766;2024-01-16T12:10:19;5.70;;;5.13;;
13406;SDS011;6774;48.208;10.766;2024-01-16T12:12:49;5.53;;;5.03;;
13406;SDS011;6774;48.208;10.766;2024-01-16T12:15:18;6.07;;;5.00;;
13406;SDS011;6774;48.208;10.766;2024-01-16T12:17:54;6.60;;;6.00;;
13406;SDS011;6774;48.208;10.766;2024-01-16T12:20:24;4.30;;;3.90;;
13406;SDS011;6774;48.208;10.766;2024-01-16T12:22:55;7.87;;;6.20;;
13406;SDS011;6774;48.208;10.766;2024-01-16T12:25:23;11.03;;;6.80;;
13406;SDS011;6774;48.208;10.766;2024-01-16T12:28:11;4.87;;;4.13;;
13406;SDS011;6774;48.208;10.766;2024-01-16T12:30:57;6.90;;;6.20;;
13406;SDS011;6774;48.208;10.766;2024-01-16T12:33:26;6.30;;;5.23;;
13406;SDS011;6774;48.208;10.766;2024-01-16T12:36:00;8.37;;;6.33;;
13406;SDS011;6774;48.208;10.766;2024-01-16T12:38:29;6.17;;;5.60;;
13406;SDS011;6774;48.208;10.766;2024-01-16T12:40:57;4.63;;;4.23;;
13406;SDS011;6774;48.208;10.766;2024-01-16T12:43:28;5.47;;;4.43;;
13406;SDS011;6774;48.208;10.766;2024-01-16T12:45:56;6.67;;;6.07;;
13406;SDS011;6774;48.208;10.766;2024-01-16T12:48:25;4.17;;;3.87;;
13406;SDS011;6774;48.208;10.766;2024-01-16T12:50:58;5.30;;;4.80;;
13406;SDS011;6774;48.208;10.766;2024-01-16T12:53:27;3.87;;;3.57;;
13406;SDS011;6774;48.208;10.766;2024-01-16T12:55:57;4.10;;;3.90;;
13406;SDS011;6774;48.208;10.766;2024-01-16T12:58:31;4.93;;;3.63;;
13406;SDS011;6774;48.208;10.766;2024-01-16T13:04:06;7.27;;;6.47;;
13406;SDS011;6774;48.208;10.766;2024-01-16T13:06:34;4.43;;;4.03;;
13406;SDS011;6774;48.208;10.766;2024-01-16T13:09:06;3.73;;;3.43;;
13406;SDS011;6774;48.208;10.766;2024-01-16T13:11:50;4.67;;;4.27;;
13406;SDS011;6774;48.208;10.766;2024-01-16T13:14:21;3.57;;;3.27;;
13406;SDS011;6774;48.208;10.766;2024-01-16T13:16:50;3.23;;;3.03;;
13406;SDS011;6774;48.208;10.766;2024-01-16T13:19:20;4.17;;;3.87;;
13406;SDS011;6774;48.208;10.766;2024-01-16T13:21:48;5.67;;;5.17;;
13406;SDS011;6774;48.208;10.766;2024-01-16T13:24:16;9.37;;;8.50;;
13406;SDS011;6774;48.208;10.766;2024-01-16T13:26:48;6.40;;;5.80;;
13406;SDS011;6774;48.208;10.766;2024-01-16T13:29:17;3.73;;;3.43;;
13406;SDS011;6774;48.208;10.766;2024-01-16T13:31:45;2.70;;;2.30;;
13406;SDS011;6774;48.208;10.766;2024-01-16T13:34:14;2.40;;;2.20;;
13406;SDS011;6774;48.208;10.766;2024-01-16T13:36:46;2.93;;;2.73;;
13406;SDS011;6774;48.208;10.766;2024-01-16T13:39:36;1.80;;;1.70;;
13406;SDS011;6774;48.208;10.766;2024-01-16T13:42:05;1.40;;;1.30;;
13406;SDS011;6774;48.208;10.766;2024-01-16T13:44:34;2.90;;;2.70;;
13406;SDS011;6774;48.208;10.766;2024-01-16T13:47:01;3.00;;;2.40;;
13406;SDS011;6774;48.208;10.766;2024-01-16T13:49:37;2.10;;;2.00;;
13406;SDS011;6774;48.208;10.766;2024-01-16T13:52:08;3.07;;;2.23;;
13406;SDS011;6774;48.208;10.766;2024-01-16T13:54:37;4.73;;;3.07;;
13406;SDS011;6774;48.208;10.766;2024-01-16T13:57:06;4.37;;;3.83;;
13406;SDS011;6774;48.208;10.766;2024-01-16T13:59:36;5.20;;;3.30;;
13406;SDS011;6774;48.208;10.766;2024-01-16T14:02:05;3.93;;;3.63;;
13406;SDS011;6774;48.208;10.766;2024-01-16T14:04:35;6.07;;;5.47;;
13406;SDS011;6774;48.208;10.766;2024-01-16T14:07:02;3.93;;;3.57;;
13406;SDS011;6774;48.208;10.766;2024-01-16T14:09:41;5.77;;;2.97;;
13406;SDS011;6774;48.208;10.766;2024-01-16T14:12:11;2.27;;;2.17;;
13406;SDS011;6774;48.208;10.766;2024-01-16T14:14:40;2.77;;;2.57;;
13406;SDS011;6774;48.208;10.766;2024-01-16T14:17:09;3.60;;;3.13;;
13406;SDS011;6774;48.208;10.766;2024-01-16T14:19:37;2.70;;;2.50;;
13406;SDS011;6774;48.208;10.766;2024-01-16T14:22:05;3.57;;;2.90;;
13406;SDS011;6774;48.208;10.766;2024-01-16T14:24:33;2.10;;;2.00;;
13406;SDS011;6774;48.208;10.766;2024-01-16T14:27:05;4.13;;;3.67;;
13406;SDS011;6774;48.208;10.766;2024-01-16T14:29:36;4.97;;;3.70;;
13406;SDS011;6774;48.208;10.766;2024-01-16T14:32:06;3.57;;;3.10;;
13406;SDS011;6774;48.208;10.766;2024-01-16T14:34:34;4.87;;;3.67;;
13406;SDS011;6774;48.208;10.766;2024-01-16T14:37:03;4.23;;;3.90;;
13406;SDS011;6774;48.208;10.766;2024-01-16T14:39:31;3.27;;;2.33;;
13406;SDS011;6774;48.208;10.766;2024-01-16T14:41:59;4.13;;;3.33;;
13406;SDS011;6774;48.208;10.766;2024-01-16T14:44:30;3.73;;;3.43;;
13406;SDS011;6774;48.208;10.766;2024-01-16T14:46:58;3.40;;;3.10;;
13406;SDS011;6774;48.208;10.766;2024-01-16T14:49:26;3.07;;;2.53;;
13406;SDS011;6774;48.208;10.766;2024-01-16T14:51:58;5.87;;;3.53;;
13406;SDS011;6774;48.208;10.766;2024-01-16T14:54:28;3.37;;;3.10;;
13406;SDS011;6774;48.208;10.766;2024-01-16T14:56:56;6.27;;;3.23;;
13406;SDS011;6774;48.208;10.766;2024-01-16T14:59:24;2.73;;;2.53;;
13406;SDS011;6774;48.208;10.766;2024-01-16T15:01:53;4.17;;;3.07;;
13406;SDS011;6774;48.208;10.766;2024-01-16T15:04:21;2.53;;;2.33;;
13406;SDS011;6774;48.208;10.766;2024-01-16T15:06:49;6.43;;;3.53;;